Time;durP1;ratioP1;P1;durP2;ratioP2;P2;SDS_P1;SDS_P2;PMS_P1;PMS_P2;Temp;Humidity;BMP_temperature;BMP_pressure;BME280_temperature;BME280_humidity;BME280_pressure;Samples;Min_cycle;Max_cycle;Signal;HPM_P1;HPM_P2
2022/03/21 00:01:05;;;;;;;9.20;4.20;;;;;;;4.46;34.25;100845.06;5097643;28;20274;-88
2022/03/21 00:03:31;;;;;;;8.77;2.90;;;;;;;4.62;34.39;100845.91;5097648;28;20629;-88
2022/03/21 00:05:58;;;;;;;8.17;3.10;;;;;;;4.64;34.07;100846.81;5097627;28;20172;-87
2022/03/21 00:08:24;;;;;;;7.67;3.40;;;;;;;4.64;34.42;100849.41;5115504;28;20555;-88
2022/03/21 00:10:51;;;;;;;10.80;3.40;;;;;;;4.61;34.07;100844.22;5115474;28;20620;-88
2022/03/21 00:13:17;;;;;;;4.60;2.53;;;;;;;4.65;34.27;100844.19;5115312;28;20643;-87
2022/03/21 00:15:43;;;;;;;4.50;2.50;;;;;;;4.67;34.42;100850.25;5115625;28;20241;-87
2022/03/21 00:18:13;;;;;;;10.00;4.17;;;;;;;4.68;35.08;100849.38;5097703;28;20272;-87
2022/03/21 00:20:40;;;;;;;8.10;3.27;;;;;;;4.50;35.79;100844.22;5097292;28;20203;-87
2022/03/21 00:23:06;;;;;;;4.43;2.47;;;;;;;4.28;36.90;100848.53;5097231;28;20573;-87
2022/03/21 00:25:31;;;;;;;4.00;2.43;;;;;;;4.06;37.18;100854.56;5114696;28;20180;-87
2022/03/21 00:27:58;;;;;;;9.23;3.20;;;;;;;3.94;37.43;100854.56;5097058;28;20252;-86
2022/03/21 00:30:25;;;;;;;5.30;2.77;;;;;;;3.89;38.14;100858.00;5115356;28;20189;-87
2022/03/21 00:32:51;;;;;;;7.40;3.27;;;;;;;3.76;38.38;100864.91;5114946;28;20172;-86
2022/03/21 00:35:16;;;;;;;6.03;2.80;;;;;;;3.64;38.50;100862.31;5096994;28;20259;-86
2022/03/21 00:37:44;;;;;;;8.90;3.43;;;;;;;3.28;39.82;100867.31;5115170;28;20239;-85
2022/03/21 00:40:11;;;;;;;10.30;3.53;;;;;;;3.00;40.01;100871.50;5096859;28;20175;-85
2022/03/21 00:42:38;;;;;;;10.03;3.07;;;;;;;3.04;39.76;100868.06;5096956;28;20240;-85
2022/03/21 00:45:14;;;;;;;4.77;3.07;;;;;;;2.89;40.75;100865.41;5114833;28;20168;-85
2022/03/21 00:47:40;;;;;;;4.97;3.13;;;;;;;2.98;40.84;100860.28;5114983;28;20222;-85
2022/03/21 00:50:08;;;;;;;8.43;2.87;;;;;;;3.00;40.63;100859.44;5114684;28;20526;-85
2022/03/21 00:52:42;;;;;;;7.60;2.53;;;;;;;2.94;40.84;100854.22;5096634;28;20270;-85
2022/03/21 00:55:09;;;;;;;6.33;2.53;;;;;;;2.93;40.68;100855.09;5114816;28;20539;-84
2022/03/21 00:57:35;;;;;;;4.73;3.27;;;;;;;2.91;40.17;100842.97;5114778;28;20164;-84
2022/03/21 01:00:08;;;;;;;3.87;2.10;;;;;;;2.87;40.58;100847.28;5114680;28;20253;-84
2022/03/21 01:02:36;;;;;;;3.33;2.13;;;;;;;2.80;41.25;100839.47;5096445;28;20171;-84
2022/03/21 01:05:03;;;;;;;8.37;3.07;;;;;;;2.70;40.93;100838.53;5114330;28;20413;-84
2022/03/21 01:07:29;;;;;;;6.07;2.73;;;;;;;2.59;41.40;100836.75;5114547;28;20253;-84
2022/03/21 01:09:55;;;;;;;6.07;3.10;;;;;;;2.53;41.40;100845.31;5114567;28;20590;-84
2022/03/21 01:12:20;;;;;;;7.37;3.33;;;;;;;2.43;41.87;100831.47;5114094;28;20684;-85
2022/03/21 01:14:46;;;;;;;3.43;2.37;;;;;;;2.50;41.68;100829.78;5096297;28;20190;-84
2022/03/21 01:17:11;;;;;;;7.57;3.63;;;;;;;2.41;41.34;100829.72;5114188;28;20175;-84
2022/03/21 01:19:37;;;;;;;7.97;3.37;;;;;;;2.33;41.83;100824.47;5114131;28;20197;-84
2022/03/21 01:22:02;;;;;;;4.63;3.10;;;;;;;2.39;41.85;100815.88;5114105;28;20213;-84
2022/03/21 01:24:28;;;;;;;7.87;3.10;;;;;;;2.51;41.33;100826.34;5114314;28;20520;-84
2022/03/21 01:26:53;;;;;;;10.97;4.30;;;;;;;2.67;41.25;100820.41;5095915;28;20196;-84
2022/03/21 01:29:19;;;;;;;10.13;3.93;;;;;;;2.90;41.01;100821.41;5113976;28;20481;-84
2022/03/21 01:31:44;;;;;;;7.77;1.57;;;;;;;3.08;40.35;100816.31;5113924;28;20164;-84
2022/03/21 01:34:10;;;;;;;7.23;2.90;;;;;;;3.09;40.73;100815.44;5113936;28;20171;-84
2022/03/21 01:36:35;;;;;;;6.50;3.53;;;;;;;3.12;40.05;100817.16;5114339;28;20171;-84
2022/03/21 01:39:01;;;;;;;8.63;4.03;;;;;;;3.19;40.25;100813.75;5113906;28;20187;-84
2022/03/21 01:41:26;;;;;;;4.10;3.10;;;;;;;3.22;39.60;100812.91;5113817;28;20175;-84
2022/03/21 01:44:01;;;;;;;8.73;3.70;;;;;;;3.23;39.71;100810.31;5113788;28;20193;-84
2022/03/21 01:46:27;;;;;;;7.63;3.53;;;;;;;3.01;40.41;100814.53;5114159;28;20221;-84
2022/03/21 01:48:54;;;;;;;3.30;2.53;;;;;;;3.11;40.32;100812.84;5113707;28;20171;-84
2022/03/21 01:51:20;;;;;;;10.40;3.77;;;;;;;3.15;40.56;100811.13;5113588;28;20168;-84
2022/03/21 01:56:30;;;;;;;7.67;2.60;;;;;;;3.30;40.07;100824.16;5114215;28;20252;-84
2022/03/21 01:58:56;;;;;;;8.23;4.50;;;;;;;3.45;38.97;100813.84;5113612;28;20226;-84
2022/03/21 02:01:22;;;;;;;9.63;3.17;;;;;;;3.51;39.23;100814.72;5114189;28;20168;-84
2022/03/21 02:03:47;;;;;;;14.33;3.07;;;;;;;3.52;38.96;100811.25;5095660;28;20581;-84
2022/03/21 02:06:13;;;;;;;8.27;4.03;;;;;;;3.55;39.02;100813.00;5113491;28;20236;-84
2022/03/21 02:08:38;;;;;;;7.43;3.17;;;;;;;3.43;38.94;100813.81;5113804;28;20168;-83
2022/03/21 02:11:06;;;;;;;5.67;2.40;;;;;;;3.54;39.40;100814.72;5113480;28;20254;-84
2022/03/21 02:13:34;;;;;;;5.83;3.33;;;;;;;3.60;38.84;100816.47;5113404;28;20190;-84
2022/03/21 02:15:59;;;;;;;4.77;2.40;;;;;;;3.58;39.00;100818.19;5113418;28;20232;-84
2022/03/21 02:18:26;;;;;;;8.60;2.43;;;;;;;3.58;38.30;100813.00;5095453;28;20175;-84
2022/03/21 02:20:54;;;;;;;5.80;2.93;;;;;;;3.59;38.71;100815.59;5095504;28;20172;-83
2022/03/21 02:23:29;;;;;;;4.70;1.90;;;;;;;3.54;38.54;100821.63;5113666;28;20246;-83
2022/03/21 02:25:56;;;;;;;4.57;2.73;;;;;;;3.33;38.69;100829.38;5113973;28;20156;-84
2022/03/21 02:28:25;;;;;;;15.27;4.80;;;;;;;3.10;39.29;100826.66;5095337;28;20199;-84
2022/03/21 02:30:53;;;;;;;5.30;2.13;;;;;;;3.06;39.17;100833.56;5113553;28;20168;-84
2022/03/21 02:33:19;;;;;;;6.00;2.20;;;;;;;3.06;39.14;100828.41;5113336;28;20336;-84
2022/03/21 02:35:49;;;;;;;2.63;1.73;;;;;;;2.85;39.30;100830.88;5095329;28;20191;-84
2022/03/21 02:38:17;;;;;;;14.27;3.73;;;;;;;3.00;39.95;100833.53;5095327;28;20182;-84
2022/03/21 02:40:42;;;;;;;8.73;2.13;;;;;;;3.01;39.71;100843.00;5113255;28;20285;-84
2022/03/21 02:43:08;;;;;;;3.77;2.17;;;;;;;2.96;39.88;100834.34;5113511;28;20204;-84
2022/03/21 02:45:34;;;;;;;3.73;3.27;;;;;;;3.12;39.30;100842.22;5113405;28;20191;-84
2022/03/21 02:47:59;;;;;;;5.70;3.30;;;;;;;3.15;39.30;100840.50;5113349;28;20252;-84
2022/03/21 02:50:51;;;;;;;7.43;3.73;;;;;;;3.10;39.75;100843.06;5115958;28;20328;-84
2022/03/21 02:53:20;;;;;;;5.17;2.60;;;;;;;2.95;39.97;100845.59;5116964;28;20175;-84
2022/03/21 02:55:46;;;;;;;9.53;3.00;;;;;;;2.92;39.80;100848.16;5117024;28;20258;-83
2022/03/21 02:58:11;;;;;;;4.43;2.77;;;;;;;2.94;39.35;100851.63;5117198;28;20264;-83
2022/03/21 03:00:37;;;;;;;5.53;2.33;;;;;;;3.02;39.55;100855.13;5116901;28;20232;-83
2022/03/21 03:03:02;;;;;;;6.43;3.30;;;;;;;2.98;39.50;100849.94;5116828;28;20264;-83
2022/03/21 03:05:27;;;;;;;4.80;2.33;;;;;;;3.08;39.90;100842.22;5116829;28;20271;-83
2022/03/21 03:07:53;;;;;;;15.10;3.23;;;;;;;3.18;39.67;100844.81;5098791;28;20668;-83
2022/03/21 03:10:18;;;;;;;9.80;3.63;;;;;;;3.20;38.99;100845.72;5117002;28;20194;-83
2022/03/21 03:12:44;;;;;;;8.83;3.40;;;;;;;3.20;39.03;100850.91;5098584;28;20194;-83
2022/03/21 03:15:09;;;;;;;8.57;2.87;;;;;;;3.22;39.08;100854.34;5116937;28;20180;-83
2022/03/21 03:17:35;;;;;;;9.03;2.83;;;;;;;3.16;39.44;100844.84;5098644;28;20589;-83
2022/03/21 03:20:00;;;;;;;4.27;2.60;;;;;;;3.20;39.18;100850.91;5098558;28;20539;-83
2022/03/21 03:22:27;;;;;;;6.73;2.90;;;;;;;3.20;38.96;100837.94;5116531;28;20172;-83
2022/03/21 03:24:52;;;;;;;7.47;2.87;;;;;;;3.18;38.71;100842.22;5116948;28;20268;-83
2022/03/21 03:27:18;;;;;;;6.87;3.03;;;;;;;3.31;38.79;100844.00;5098377;28;20528;-83
2022/03/21 03:29:44;;;;;;;5.80;2.37;;;;;;;3.27;39.00;100842.28;5116581;28;20176;-83
2022/03/21 03:32:09;;;;;;;4.70;3.17;;;;;;;3.28;38.94;100844.88;5116246;28;20176;-83
2022/03/21 03:34:35;;;;;;;4.53;2.57;;;;;;;3.32;38.65;100845.75;5116208;28;20168;-83
2022/03/21 03:37:01;;;;;;;12.87;4.07;;;;;;;3.37;38.73;100844.91;5116138;28;20172;-83
2022/03/21 03:39:28;;;;;;;6.37;2.60;;;;;;;3.30;39.16;100843.16;5116423;28;20214;-83
2022/03/21 03:41:54;;;;;;;4.93;2.30;;;;;;;3.21;38.78;100843.13;5098094;28;20179;-83
2022/03/21 03:44:20;;;;;;;4.70;2.53;;;;;;;3.29;39.06;100843.16;5098089;28;20179;-83
2022/03/21 03:46:45;;;;;;;5.03;2.67;;;;;;;3.37;38.50;100838.88;5115914;28;20677;-83
2022/03/21 03:49:11;;;;;;;5.83;2.77;;;;;;;3.52;39.12;100836.31;5115949;28;20256;-83
2022/03/21 03:51:36;;;;;;;5.47;2.87;;;;;;;3.45;38.59;100840.63;5097989;28;20176;-83
2022/03/21 03:54:02;;;;;;;6.93;3.47;;;;;;;3.44;39.12;100843.19;5116132;28;20175;-83
2022/03/21 03:56:27;;;;;;;7.17;2.73;;;;;;;3.47;38.88;100849.28;5116095;28;20578;-83
2022/03/21 03:58:53;;;;;;;4.63;2.97;;;;;;;3.33;39.18;100856.13;5115783;28;20168;-83
2022/03/21 04:01:18;;;;;;;4.87;2.23;;;;;;;3.30;39.90;100848.31;5097564;28;20652;-83
2022/03/21 04:03:46;;;;;;;5.07;3.50;;;;;;;3.29;39.83;100848.34;5097784;28;20179;-83
2022/03/21 04:06:13;;;;;;;15.87;4.70;;;;;;;3.23;40.02;100846.56;5097670;28;20172;-83
2022/03/21 04:08:38;;;;;;;3.17;2.43;;;;;;;3.24;40.26;100844.88;5115604;28;20262;-83
2022/03/21 04:11:04;;;;;;;3.67;2.20;;;;;;;3.14;40.56;100846.56;5097566;28;20710;-83
2022/03/21 04:13:29;;;;;;;10.50;3.60;;;;;;;3.10;40.58;100850.84;5115338;28;20230;-83
2022/03/21 04:15:55;;;;;;;5.13;2.93;;;;;;;3.07;40.88;100849.94;5115447;28;20625;-83
2022/03/21 04:18:20;;;;;;;6.00;2.50;;;;;;;3.02;40.10;100849.94;5115377;28;20232;-83
2022/03/21 04:20:50;;;;;;;4.23;2.77;;;;;;;3.04;40.67;100843.03;5097403;28;20623;-83
2022/03/21 04:23:17;;;;;;;5.07;4.40;;;;;;;3.00;40.21;100850.78;5115560;28;20175;-83
2022/03/21 04:25:43;;;;;;;4.00;2.27;;;;;;;3.03;40.08;100854.28;5115252;28;20181;-83
2022/03/21 04:28:11;;;;;;;3.43;2.03;;;;;;;3.02;40.33;100847.34;5115319;28;20446;-83
2022/03/21 04:30:38;;;;;;;4.80;2.63;;;;;;;3.01;39.92;100849.94;5115165;28;20243;-83
2022/03/21 04:33:04;;;;;;;6.73;3.17;;;;;;;3.09;40.24;100843.91;5115415;28;20174;-83
2022/03/21 04:35:30;;;;;;;4.47;2.73;;;;;;;3.10;40.06;100845.66;5097120;28;20424;-83
2022/03/21 04:37:55;;;;;;;6.10;4.40;;;;;;;3.09;39.30;100841.34;5115327;28;20620;-83
2022/03/21 04:40:23;;;;;;;9.73;2.80;;;;;;;3.18;40.08;100843.09;5097035;28;20197;-83
2022/03/21 04:42:48;;;;;;;8.03;2.83;;;;;;;3.29;39.30;100838.84;5114908;28;20171;-83
2022/03/21 04:45:14;;;;;;;4.23;2.63;;;;;;;3.30;39.29;100843.16;5115147;28;20285;-83
2022/03/21 04:47:39;;;;;;;7.80;3.50;;;;;;;3.43;38.97;100849.25;5114721;28;20653;-83
2022/03/21 04:50:07;;;;;;;14.57;4.33;;;;;;;3.50;38.78;100843.22;5096821;28;20175;-83
2022/03/21 04:52:33;;;;;;;7.77;3.77;;;;;;;3.58;38.80;100841.53;5096835;28;20179;-83
2022/03/21 04:55:00;;;;;;;5.60;3.20;;;;;;;3.57;38.71;100837.19;5115220;28;20164;-83
2022/03/21 04:57:26;;;;;;;5.10;3.17;;;;;;;3.64;38.69;100844.16;5096678;28;20167;-83
2022/03/21 04:59:53;;;;;;;5.47;2.43;;;;;;;3.72;38.61;100852.81;5114526;28;20605;-83
2022/03/21 05:02:19;;;;;;;3.87;2.70;;;;;;;3.84;38.42;100842.44;5114475;28;20225;-83
2022/03/21 05:04:44;;;;;;;6.37;3.27;;;;;;;3.82;38.65;100840.72;5114822;28;20179;-83
2022/03/21 05:07:16;;;;;;;7.93;4.67;;;;;;;3.95;38.65;100845.94;5096421;28;20368;-83
2022/03/21 05:09:43;;;;;;;4.97;2.63;;;;;;;4.15;38.44;100838.16;5096455;28;20181;-83
2022/03/21 05:12:09;;;;;;;5.97;2.70;;;;;;;4.17;39.07;100845.06;5113701;28;20260;-83
2022/03/21 05:14:35;;;;;;;8.47;4.37;;;;;;;4.01;39.42;100845.09;5096474;28;20617;-83
2022/03/21 05:17:02;;;;;;;4.13;2.23;;;;;;;3.87;39.39;100850.25;5096956;28;20172;-83
2022/03/21 05:19:35;;;;;;;7.33;3.67;;;;;;;3.99;39.59;100847.66;5096340;28;20176;-83
2022/03/21 05:22:02;;;;;;;6.60;3.43;;;;;;;4.20;39.51;100839.88;5114493;28;20178;-84
2022/03/21 05:32:39;;;;;;;10.40;4.30;;;;;;;5.33;38.86;100844.00;5114119;28;20232;-85
2022/03/21 05:37:49;;;;;;;20.40;4.50;;;;;;;5.95;37.61;100841.06;5114590;28;20659;-85
2022/03/21 05:40:34;;;;;;;8.87;3.70;;;;;;;6.25;35.68;100839.13;5113931;28;20173;-86
2022/03/21 05:43:00;;;;;;;10.33;3.83;;;;;;;6.92;35.27;100836.78;5114011;28;20173;-87
2022/03/21 05:45:26;;;;;;;8.47;4.03;;;;;;;7.62;34.33;100834.19;5095958;28;20642;-87
2022/03/21 05:50:37;;;;;;;15.13;5.23;;;;;;;8.59;31.65;100829.16;5114110;28;20163;-87
2022/03/21 05:53:04;;;;;;;6.67;3.07;;;;;;;8.93;30.87;100821.59;5114075;28;20167;-86
2022/03/21 05:55:30;;;;;;;7.07;4.00;;;;;;;9.28;30.23;100824.34;5095853;28;20641;-87
2022/03/21 05:57:57;;;;;;;7.83;4.53;;;;;;;9.25;30.23;100824.41;5095763;28;20207;-86
2022/03/21 06:00:23;;;;;;;7.20;3.57;;;;;;;9.17;30.66;100817.63;5113677;28;20241;-86
2022/03/21 06:02:51;;;;;;;7.23;3.33;;;;;;;9.07;30.03;100822.16;5113694;28;20693;-86
2022/03/21 06:05:17;;;;;;;9.67;3.90;;;;;;;8.91;29.21;100831.19;5113638;28;20195;-87
2022/03/21 06:07:43;;;;;;;11.10;4.30;;;;;;;8.78;30.44;100824.47;5113812;28;20192;-87
2022/03/21 06:10:08;;;;;;;9.40;4.00;;;;;;;9.17;30.44;100836.78;5113849;28;20535;-86
2022/03/21 06:12:34;;;;;;;6.90;3.70;;;;;;;9.70;29.81;100822.59;5113336;28;20285;-87
2022/03/21 06:14:59;;;;;;;9.10;3.97;;;;;;;10.12;29.44;100820.75;5113546;28;20171;-87
2022/03/21 06:17:25;;;;;;;8.97;3.93;;;;;;;10.46;28.02;100826.03;5095852;28;20171;-87
2022/03/21 06:19:51;;;;;;;7.83;3.63;;;;;;;11.11;26.49;100813.78;5095524;28;20171;-88
2022/03/21 06:22:17;;;;;;;10.67;4.30;;;;;;;12.12;26.30;100804.63;5114033;28;20203;-86
2022/03/21 06:24:42;;;;;;;8.00;4.37;;;;;;;12.93;25.20;100809.72;5115213;28;20189;-88
2022/03/21 06:27:08;;;;;;;12.30;4.90;;;;;;;13.28;26.33;100804.97;5100100;28;20551;-87
2022/03/21 06:29:34;;;;;;;8.37;3.30;;;;;;;13.19;25.30;100808.81;5099531;28;20174;-89
2022/03/21 06:31:59;;;;;;;8.70;4.43;;;;;;;12.85;24.58;100805.63;5099786;28;20187;-87
2022/03/21 06:34:25;;;;;;;11.27;4.80;;;;;;;12.69;24.34;100802.66;5117480;28;20164;-87
2022/03/21 06:36:52;;;;;;;6.13;3.97;;;;;;;12.48;24.79;100811.28;5117396;28;20167;-87
2022/03/21 06:39:18;;;;;;;8.30;4.13;;;;;;;12.52;25.70;100809.44;5117359;28;20615;-87
2022/03/21 06:41:44;;;;;;;8.93;4.00;;;;;;;13.35;25.42;100801.19;5117284;28;20180;-87
2022/03/21 06:44:10;;;;;;;8.80;3.80;;;;;;;13.83;24.89;100803.72;5117204;28;20175;-87
2022/03/21 06:46:36;;;;;;;12.13;5.17;;;;;;;14.15;23.47;100806.78;5099129;28;20178;-88
2022/03/21 06:49:02;;;;;;;8.43;4.40;;;;;;;14.02;24.51;100809.97;5117210;28;20167;-88
2022/03/21 06:51:27;;;;;;;9.60;4.83;;;;;;;12.97;23.88;100809.59;5117472;28;20178;-88
2022/03/21 06:53:53;;;;;;;11.23;4.73;;;;;;;12.50;25.51;100819.16;5099142;28;20175;-88
2022/03/21 06:56:18;;;;;;;12.33;4.83;;;;;;;12.89;25.00;100818.63;5117054;28;20176;-88
2022/03/21 06:58:44;;;;;;;20.20;7.03;;;;;;;12.84;26.46;100810.03;5117246;28;20522;-88
2022/03/21 07:01:09;;;;;;;10.47;4.23;;;;;;;13.73;26.16;100803.22;5117212;28;20232;-88
2022/03/21 07:03:35;;;;;;;12.43;4.40;;;;;;;13.76;24.28;100797.81;5116962;28;20167;-88
2022/03/21 07:06:00;;;;;;;7.87;3.37;;;;;;;13.79;25.71;100802.97;5116885;28;20168;-89
2022/03/21 07:08:26;;;;;;;9.73;4.13;;;;;;;13.93;25.88;100805.94;5117349;28;20199;-88
2022/03/21 07:10:52;;;;;;;12.77;3.60;;;;;;;14.16;24.33;100805.00;5099092;28;20325;-88
2022/03/21 07:13:17;;;;;;;7.30;3.90;;;;;;;14.22;24.55;100806.53;5116732;28;20192;-89
2022/03/21 07:15:43;;;;;;;5.70;3.10;;;;;;;13.95;26.00;100801.47;5117011;28;20175;-89
2022/03/21 07:18:09;;;;;;;7.47;3.57;;;;;;;13.76;24.53;100802.22;5098703;28;20273;-89
2022/03/21 07:20:35;;;;;;;7.37;4.30;;;;;;;13.04;24.84;100797.94;5116922;28;20168;-89
2022/03/21 07:23:01;;;;;;;8.23;3.63;;;;;;;13.26;25.73;100791.84;5116577;28;20195;-89
2022/03/21 07:25:27;;;;;;;5.47;3.27;;;;;;;13.40;26.38;100796.59;5117023;28;20256;-89
2022/03/21 07:27:53;;;;;;;8.53;3.40;;;;;;;13.16;25.12;100789.59;5098592;28;20210;-89
2022/03/21 07:30:18;;;;;;;6.80;3.30;;;;;;;12.75;25.84;100794.56;5116758;28;20176;-89
2022/03/21 07:32:45;;;;;;;8.07;4.17;;;;;;;12.43;25.65;100799.22;5116388;28;20186;-89
2022/03/21 07:35:12;;;;;;;5.87;3.20;;;;;;;11.52;25.21;100800.34;5116364;28;20258;-90
2022/03/21 07:37:46;;;;;;;9.67;4.03;;;;;;;11.65;26.70;100791.19;5116292;28;20167;-88
2022/03/21 07:40:13;;;;;;;11.07;4.43;;;;;;;11.77;27.09;100789.97;5116272;28;20170;-89
2022/03/21 07:42:40;;;;;;;6.60;2.63;;;;;;;11.83;26.29;100795.03;5116763;28;20174;-88
2022/03/21 07:47:51;;;;;;;10.20;2.67;;;;;;;10.97;27.02;100801.06;5116073;28;20271;-88
2022/03/21 07:50:19;;;;;;;5.87;3.40;;;;;;;11.37;26.83;100800.78;5116093;28;20167;-88
2022/03/21 07:52:44;;;;;;;6.37;3.07;;;;;;;11.57;28.70;100787.06;5116014;28;20189;-88
2022/03/21 07:55:10;;;;;;;5.37;2.47;;;;;;;11.55;26.12;100789.75;5097939;28;20627;-87
2022/03/21 07:57:35;;;;;;;4.83;2.40;;;;;;;11.65;25.99;100785.94;5115894;28;20201;-90
2022/03/21 08:00:01;;;;;;;6.83;3.43;;;;;;;11.99;26.12;100775.25;5097963;28;20180;-89
2022/03/21 08:02:27;;;;;;;4.77;2.53;;;;;;;11.88;26.39;100781.75;5115862;28;20259;-88
2022/03/21 08:04:53;;;;;;;4.00;2.20;;;;;;;11.97;26.01;100770.97;5116086;28;20250;-89
2022/03/21 08:07:18;;;;;;;3.37;1.57;;;;;;;11.71;24.07;100772.63;5097760;28;20294;-89
2022/03/21 08:09:46;;;;;;;5.67;2.80;;;;;;;11.59;25.33;100775.59;5115650;28;20172;-89
2022/03/21 08:12:12;;;;;;;1.93;1.57;;;;;;;11.11;25.17;100774.41;5115480;28;20199;-90
2022/03/21 08:14:37;;;;;;;4.63;2.03;;;;;;;10.88;27.47;100771.59;5097790;28;20163;-89
2022/03/21 08:17:04;;;;;;;4.97;1.93;;;;;;;11.30;25.04;100766.88;5115521;28;20175;-87
2022/03/21 08:19:29;;;;;;;4.07;2.07;;;;;;;11.44;26.23;100759.47;5115771;28;20171;-88
2022/03/21 08:21:55;;;;;;;6.57;2.47;;;;;;;11.85;25.47;100763.44;5115994;28;20171;-89
2022/03/21 08:24:24;;;;;;;2.83;1.30;;;;;;;11.29;24.06;100766.03;5115422;28;20541;-89
2022/03/21 08:26:50;;;;;;;2.30;1.00;;;;;;;11.27;24.69;100756.50;5115562;28;20194;-89
2022/03/21 08:29:16;;;;;;;3.80;1.40;;;;;;;11.33;23.20;100751.03;5097347;28;20267;-88
2022/03/21 08:31:42;;;;;;;6.20;1.70;;;;;;;11.74;22.89;100747.19;5115552;28;20175;-89
2022/03/21 08:34:08;;;;;;;1.97;1.00;;;;;;;11.48;22.64;100758.44;5115254;28;20607;-90
2022/03/21 08:36:33;;;;;;;3.57;2.17;;;;;;;11.32;23.39;100758.06;5115154;28;20167;-89
2022/03/21 08:39:00;;;;;;;4.20;1.77;;;;;;;11.71;23.09;100754.22;5115145;28;20191;-88
2022/03/21 08:41:26;;;;;;;5.10;1.07;;;;;;;11.80;21.67;100744.34;5115600;28;20172;-88
2022/03/21 08:43:52;;;;;;;5.73;1.53;;;;;;;11.91;22.28;100755.38;5115060;28;20250;-90
2022/03/21 08:46:17;;;;;;;2.27;1.17;;;;;;;11.54;22.58;100751.25;5114645;28;20623;-88
2022/03/21 08:51:27;;;;;;;3.67;1.63;;;;;;;11.56;23.33;100744.19;5115205;28;20531;-89
2022/03/21 08:53:53;;;;;;;3.33;1.17;;;;;;;11.65;22.83;100748.28;5115143;28;20175;-88
2022/03/21 08:56:18;;;;;;;1.13;0.63;;;;;;;11.46;21.29;100752.38;5096889;28;20258;-85
2022/03/21 08:58:44;;;;;;;6.23;1.40;;;;;;;11.60;22.43;100750.22;5114925;28;20168;-86
2022/03/21 09:01:09;;;;;;;2.23;1.20;;;;;;;11.59;22.44;100749.34;5114999;28;20176;-87
2022/03/21 09:03:35;;;;;;;3.40;0.97;;;;;;;11.81;23.40;100748.69;5114614;28;20505;-88
2022/03/21 09:06:01;;;;;;;4.77;1.43;;;;;;;11.98;22.88;100746.38;5114582;28;20172;-87
2022/03/21 09:08:26;;;;;;;3.50;1.20;;;;;;;11.97;22.52;100739.44;5114466;28;20192;-88
2022/03/21 09:10:52;;;;;;;1.33;0.33;;;;;;;11.35;22.63;100741.34;5114641;28;20172;-92
2022/03/21 09:13:18;;;;;;;2.30;1.17;;;;;;;10.83;23.17;100744.63;5114481;28;20209;-91
2022/03/21 09:15:44;;;;;;;2.43;1.67;;;;;;;11.06;23.04;100747.44;5115080;28;20183;-87
2022/03/21 09:18:10;;;;;;;6.13;1.83;;;;;;;11.34;23.35;100732.63;5114596;28;20171;-87
2022/03/21 09:20:35;;;;;;;5.53;1.30;;;;;;;11.44;23.43;100744.56;5114318;28;20595;-88
2022/03/21 09:23:01;;;;;;;2.47;1.50;;;;;;;11.49;22.63;100729.53;5114850;28;20178;-87
2022/03/21 09:25:26;;;;;;;3.30;1.33;;;;;;;11.75;23.40;100730.50;5114492;28;20182;-89
2022/03/21 09:27:52;;;;;;;1.83;1.33;;;;;;;11.74;24.08;100727.00;5096142;28;20238;-86
2022/03/21 09:30:17;;;;;;;2.30;1.20;;;;;;;12.07;22.87;100725.06;5114153;28;20543;-87
2022/03/21 09:32:43;;;;;;;2.00;0.67;;;;;;;12.49;22.78;100723.59;5114379;28;20618;-90
2022/03/21 09:35:09;;;;;;;3.67;1.47;;;;;;;12.51;24.63;100716.50;5114073;28;20167;-87
2022/03/21 09:37:35;;;;;;;2.43;0.87;;;;;;;12.30;23.54;100725.13;5114670;28;20513;-88
2022/03/21 09:40:01;;;;;;;2.17;1.10;;;;;;;12.49;22.64;100717.47;5113955;28;20172;-89
2022/03/21 09:42:27;;;;;;;1.87;0.90;;;;;;;12.75;22.06;100715.63;5113962;28;20175;-88
2022/03/21 09:44:55;;;;;;;4.23;1.63;;;;;;;12.50;22.78;100711.31;5097099;28;20176;-90
2022/03/21 09:50:10;;;;;;;1.50;0.83;;;;;;;12.37;23.90;100713.50;5114209;28;20167;-89
2022/03/21 09:52:36;;;;;;;3.70;1.20;;;;;;;12.07;24.53;100711.91;5114210;28;20182;-87
2022/03/21 09:55:02;;;;;;;3.77;1.30;;;;;;;12.27;23.35;100712.97;5113802;28;20624;-89
2022/03/21 09:57:28;;;;;;;10.07;1.60;;;;;;;12.63;22.52;100704.72;5113747;28;20164;-88
2022/03/21 09:59:58;;;;;;;2.10;1.10;;;;;;;12.79;23.79;100687.41;5113417;28;20647;-87
2022/03/21 10:02:24;;;;;;;1.70;0.73;;;;;;;13.10;22.96;100703.81;5113764;28;20168;-88
2022/03/21 10:04:50;;;;;;;2.07;0.90;;;;;;;12.98;22.58;100696.34;5113761;28;20168;-88
2022/03/21 10:07:24;;;;;;;2.73;1.17;;;;;;;12.70;23.49;100701.78;5113545;28;20206;-88
2022/03/21 10:10:06;;;;;;;3.60;1.00;;;;;;;12.71;21.80;100700.84;5095674;28;20178;-86
2022/03/21 10:12:32;;;;;;;2.23;0.90;;;;;;;12.94;23.21;100689.50;5113765;28;20711;-90
2022/03/21 10:14:59;;;;;;;2.37;1.30;;;;;;;12.95;22.22;100676.28;5113832;28;20176;-87
2022/03/21 10:17:25;;;;;;;3.63;1.70;;;;;;;13.33;23.32;100687.16;5113482;28;20197;-88
2022/03/21 10:19:52;;;;;;;2.40;1.50;;;;;;;13.40;23.34;100672.81;5113719;28;20205;-88
2022/03/21 10:22:33;;;;;;;2.73;1.27;;;;;;;13.54;23.00;100683.66;5113485;28;20173;-87
2022/03/21 10:25:04;;;;;;;1.83;1.23;;;;;;;13.16;21.67;100684.28;5113744;28;20181;-86
2022/03/21 10:27:33;;;;;;;3.40;1.20;;;;;;;13.10;23.63;100674.84;5113986;28;20224;-87
2022/03/21 10:30:03;;;;;;;1.97;1.00;;;;;;;13.06;22.35;100669.75;5113649;28;20260;-87
2022/03/21 10:32:36;;;;;;;2.13;1.07;;;;;;;13.21;22.93;100662.13;5113321;28;20175;-91
2022/03/21 10:35:21;;;;;;;2.17;1.20;;;;;;;12.82;22.65;100658.34;5113691;28;20177;-92
2022/03/21 10:37:52;;;;;;;3.40;1.57;;;;;;;12.98;23.16;100653.38;5095800;28;20245;-89
2022/03/21 10:40:22;;;;;;;2.80;1.20;;;;;;;13.28;22.19;100658.38;5113391;28;20207;-93
2022/03/21 10:43:05;;;;;;;;;;;;;;;;;;;;;
2022/03/21 10:45:37;;;;;;;4.07;1.30;;;;;;;12.95;22.80;100652.59;5114110;28;20160;-91
2022/03/21 10:48:07;;;;;;;3.20;0.97;;;;;;;13.14;22.95;100655.41;5113667;28;20208;-89
2022/03/21 10:50:34;;;;;;;4.83;1.30;;;;;;;13.44;22.97;100642.81;5113844;28;20169;-90
2022/03/21 10:53:03;;;;;;;3.03;1.27;;;;;;;13.73;22.11;100633.72;5095296;28;20230;-91
2022/03/21 10:55:28;;;;;;;2.23;1.10;;;;;;;13.72;22.77;100638.13;5113290;28;20235;-90
2022/03/21 10:58:00;;;;;;;1.90;1.10;;;;;;;13.66;22.62;100625.19;5113788;28;20165;-91
2022/03/21 11:00:27;;;;;;;3.77;1.00;;;;;;;13.61;21.89;100635.06;5113905;28;20161;-89
2022/03/21 11:02:55;;;;;;;3.10;1.00;;;;;;;13.84;22.98;100634.97;5113205;28;20182;-89
2022/03/21 11:05:22;;;;;;;2.33;1.23;;;;;;;13.94;22.78;100622.25;5113493;28;20176;-93
2022/03/21 11:07:49;;;;;;;1.67;1.07;;;;;;;13.75;22.51;100616.91;5095530;28;20272;-90
2022/03/21 11:10:15;;;;;;;1.77;1.10;;;;;;;14.00;22.21;100612.31;5113724;28;20636;-89
2022/03/21 11:12:48;;;;;;;4.40;1.53;;;;;;;14.26;21.96;100612.94;5116866;28;20270;-87
2022/03/21 11:15:14;;;;;;;4.97;1.40;;;;;;;14.44;21.32;100609.53;5116809;28;20154;-88
2022/03/21 11:17:45;;;;;;;2.43;1.37;;;;;;;14.46;21.98;100605.03;5116788;28;20178;-90
2022/03/21 11:20:13;;;;;;;2.63;1.00;;;;;;;14.29;21.44;100603.13;5098976;28;20175;-88
2022/03/21 11:22:41;;;;;;;3.53;1.43;;;;;;;14.46;21.65;100599.75;5116717;28;20202;-88
2022/03/21 11:25:09;;;;;;;2.47;1.07;;;;;;;14.33;21.56;100599.47;5116866;28;20174;-88
2022/03/21 11:27:37;;;;;;;2.23;1.07;;;;;;;14.36;21.38;100603.75;5116477;28;20261;-87
2022/03/21 11:30:18;;;;;;;2.53;1.27;;;;;;;14.59;21.65;100591.22;5116516;28;20171;-91
2022/03/21 11:33:14;;;;;;;2.40;1.07;;;;;;;14.04;21.79;100590.16;5116923;28;20175;-91
2022/03/21 11:35:52;;;;;;;1.80;0.93;;;;;;;14.37;21.48;100579.91;5098487;28;20170;-90
2022/03/21 11:38:25;;;;;;;2.23;0.97;;;;;;;14.43;21.44;100573.50;5098468;28;20160;-91
2022/03/21 11:40:50;;;;;;;2.73;1.00;;;;;;;14.80;20.95;100570.03;5098333;28;20176;-88
2022/03/21 11:43:26;;;;;;;3.37;1.40;;;;;;;14.10;22.10;100574.06;5116446;28;20746;-90
2022/03/21 11:45:55;;;;;;;2.23;1.00;;;;;;;13.93;22.00;100568.69;5117456;28;20159;-89
2022/03/21 11:48:23;;;;;;;2.37;1.20;;;;;;;13.65;22.84;100572.56;5116269;28;20236;-90
2022/03/21 11:50:50;;;;;;;3.40;1.90;;;;;;;14.01;21.86;100561.28;5098282;28;20181;-90
2022/03/21 11:53:27;;;;;;;4.43;1.70;;;;;;;14.72;22.99;100567.75;5116131;28;20173;-90